createdAt,value
2022-11-17T00:01:19.814Z,1.30
2022-11-17T00:03:47.134Z,1.80
2022-11-17T00:06:13.817Z,1.00
2022-11-17T00:08:40.426Z,1.30
2022-11-17T00:11:07.146Z,1.30
2022-11-17T00:13:52.610Z,1.27
2022-11-17T00:16:20.019Z,1.87
2022-11-17T00:19:05.220Z,1.67
2022-11-17T00:21:31.875Z,2.17
2022-11-17T00:23:58.464Z,1.70
2022-11-17T00:26:32.296Z,1.40
2022-11-17T00:29:00.075Z,1.53
2022-11-17T00:31:46.413Z,1.30
2022-11-17T00:34:14.858Z,1.07
2022-11-17T00:36:46.119Z,1.20
2022-11-17T00:39:13.506Z,0.97
2022-11-17T00:41:40.192Z,0.90
2022-11-17T00:44:07.258Z,1.20
2022-11-17T00:46:34.158Z,1.20
2022-11-17T00:49:00.745Z,0.97
2022-11-17T00:51:27.542Z,1.07
2022-11-17T00:53:54.110Z,1.20
2022-11-17T00:56:20.650Z,0.90
2022-11-17T00:58:47.125Z,1.00
2022-11-17T01:01:14.086Z,1.47
2022-11-17T01:03:40.633Z,0.90
2022-11-17T01:06:08.779Z,0.97
2022-11-17T01:08:35.562Z,0.87
2022-11-17T01:11:06.593Z,0.70
2022-11-17T01:13:33.802Z,0.87
2022-11-17T01:16:04.970Z,0.80
2022-11-17T01:18:31.884Z,1.23
2022-11-17T01:21:03.091Z,0.70
2022-11-17T01:23:29.745Z,0.90
2022-11-17T01:26:00.987Z,0.60
2022-11-17T01:28:27.454Z,1.17
2022-11-17T01:31:04.615Z,0.90
2022-11-17T01:33:31.254Z,0.77
2022-11-17T01:36:05.044Z,0.83
2022-11-17T01:38:31.940Z,0.70
2022-11-17T01:40:59.479Z,1.77
2022-11-17T01:43:38.483Z,0.70
2022-11-17T01:46:05.934Z,1.27
2022-11-17T01:48:32.426Z,0.70
2022-11-17T01:50:59.159Z,0.70
2022-11-17T01:53:28.404Z,0.60
2022-11-17T01:55:57.554Z,1.00
2022-11-17T01:58:28.092Z,0.60
2022-11-17T02:00:55.426Z,0.60
2022-11-17T02:03:22.586Z,0.67
2022-11-17T02:05:55.637Z,0.67
2022-11-17T02:08:22.942Z,0.60
2022-11-17T02:10:51.937Z,0.60
2022-11-17T02:13:19.923Z,0.70
2022-11-17T02:15:46.504Z,0.70
2022-11-17T02:18:13.248Z,0.60
2022-11-17T02:20:58.618Z,0.63
2022-11-17T02:23:43.748Z,0.60
2022-11-17T02:26:21.899Z,0.73
2022-11-17T02:29:03.744Z,0.70
2022-11-17T02:31:36.331Z,0.60
2022-11-17T02:34:02.805Z,0.60
2022-11-17T02:36:48.222Z,0.60
2022-11-17T02:39:24.365Z,0.50
2022-11-17T02:42:02.499Z,0.60
2022-11-17T02:44:39.955Z,0.80
2022-11-17T02:47:12.804Z,1.00
2022-11-17T02:49:41.530Z,0.50
2022-11-17T02:52:08.776Z,0.60
2022-11-17T02:54:36.175Z,0.70
2022-11-17T02:57:02.756Z,0.50
2022-11-17T02:59:34.913Z,0.60
2022-11-17T03:02:04.522Z,0.60
2022-11-17T03:04:41.753Z,0.60
2022-11-17T03:07:11.354Z,0.60
2022-11-17T03:09:37.908Z,0.60
2022-11-17T03:12:23.119Z,0.70
2022-11-17T03:15:08.378Z,0.53
2022-11-17T03:17:42.776Z,0.53
2022-11-17T03:20:22.139Z,0.73
2022-11-17T03:22:54.159Z,0.90
2022-11-17T03:25:23.110Z,0.50
2022-11-17T03:27:53.346Z,0.60
2022-11-17T03:30:22.237Z,0.60
2022-11-17T03:32:59.688Z,0.50
2022-11-17T03:35:28.422Z,0.60
2022-11-17T03:37:57.239Z,0.60
2022-11-17T03:40:26.110Z,0.60
2022-11-17T03:42:54.200Z,1.00
2022-11-17T03:45:23.602Z,0.60
2022-11-17T03:47:59.066Z,0.60
2022-11-17T03:50:30.139Z,0.60
2022-11-17T03:52:57.007Z,0.60
2022-11-17T03:55:25.144Z,0.73
2022-11-17T03:58:02.446Z,0.63
2022-11-17T04:00:29.215Z,0.80
2022-11-17T04:02:58.559Z,0.83
2022-11-17T04:05:25.177Z,0.77
2022-11-17T04:07:51.997Z,0.63
2022-11-17T04:10:20.353Z,0.80
2022-11-17T04:13:06.030Z,0.80
2022-11-17T04:15:51.631Z,0.60
2022-11-17T04:18:18.886Z,0.90
2022-11-17T04:20:45.950Z,0.80
2022-11-17T04:23:14.328Z,0.67
2022-11-17T04:26:00.638Z,0.73
2022-11-17T04:28:36.883Z,0.90
2022-11-17T04:31:03.394Z,0.90
2022-11-17T04:33:30.114Z,1.37
2022-11-17T04:35:57.228Z,1.60
2022-11-17T04:38:23.891Z,1.03
2022-11-17T04:41:09.222Z,1.30
2022-11-17T04:43:37.461Z,2.40
2022-11-17T04:46:04.730Z,2.17
2022-11-17T04:48:31.331Z,1.77
2022-11-17T04:50:57.827Z,2.40
2022-11-17T04:53:24.538Z,1.87
2022-11-17T04:55:51.392Z,2.47
2022-11-17T04:58:17.913Z,3.13
2022-11-17T05:00:44.705Z,3.27
2022-11-17T05:03:11.225Z,2.97
2022-11-17T05:05:37.710Z,3.13
2022-11-17T05:08:04.427Z,3.30
2022-11-17T05:10:49.657Z,3.60
2022-11-17T05:13:22.360Z,1.70
2022-11-17T05:16:07.628Z,1.67
2022-11-17T05:18:34.113Z,1.60
2022-11-17T05:21:04.666Z,1.87
2022-11-17T05:23:49.895Z,1.80
2022-11-17T05:26:16.854Z,2.80
2022-11-17T05:28:43.629Z,4.70
2022-11-17T05:31:10.227Z,5.27
2022-11-17T05:33:38.093Z,3.43
2022-11-17T05:36:05.360Z,8.30
2022-11-17T05:38:32.187Z,5.80
2022-11-17T05:40:59.907Z,3.10
2022-11-17T05:43:26.687Z,1.70
2022-11-17T05:45:56.295Z,1.83
2022-11-17T05:48:22.841Z,1.70
2022-11-17T05:50:51.986Z,1.53
2022-11-17T05:53:18.552Z,1.20
2022-11-17T05:55:45.260Z,2.77
2022-11-17T05:58:29.484Z,2.07
2022-11-17T06:00:57.439Z,3.20
2022-11-17T06:03:25.736Z,2.03
2022-11-17T06:05:52.629Z,2.30
2022-11-17T06:08:19.832Z,4.03
2022-11-17T06:10:46.425Z,1.77
2022-11-17T06:13:12.989Z,1.23
2022-11-17T06:15:39.533Z,0.87
2022-11-17T06:18:10.499Z,0.70
2022-11-17T06:20:42.963Z,0.60
2022-11-17T06:23:10.357Z,1.40
2022-11-17T06:25:37.868Z,0.70
2022-11-17T06:28:06.215Z,0.60
2022-11-17T06:30:33.739Z,0.90
2022-11-17T06:33:01.151Z,0.60
2022-11-17T06:35:28.854Z,0.70
2022-11-17T06:37:55.410Z,1.00
2022-11-17T06:40:21.930Z,1.10
2022-11-17T06:43:03.754Z,0.90
2022-11-17T06:45:37.061Z,1.30
2022-11-17T06:48:04.063Z,1.20
2022-11-17T06:50:30.660Z,1.27
2022-11-17T06:53:01.866Z,1.27
2022-11-17T06:55:29.136Z,0.93
2022-11-17T06:58:00.376Z,0.83
2022-11-17T07:00:27.408Z,1.37
2022-11-17T07:02:58.910Z,0.80
2022-11-17T07:05:25.562Z,0.80
2022-11-17T07:07:52.139Z,1.00
2022-11-17T07:10:18.771Z,0.90
2022-11-17T07:12:46.149Z,1.13
2022-11-17T07:15:12.762Z,0.90
2022-11-17T07:17:39.354Z,0.90
2022-11-17T07:20:06.250Z,1.40
2022-11-17T07:22:32.857Z,1.00
2022-11-17T07:24:59.612Z,1.10
2022-11-17T07:27:26.183Z,1.30
2022-11-17T07:29:52.947Z,0.90
2022-11-17T07:32:19.529Z,0.80
2022-11-17T07:34:46.179Z,0.87
2022-11-17T07:37:12.908Z,1.00
2022-11-17T07:39:39.435Z,0.97
2022-11-17T07:42:06.286Z,2.20
2022-11-17T07:44:32.894Z,1.10
2022-11-17T07:46:59.498Z,1.00
2022-11-17T07:49:26.867Z,1.10
2022-11-17T07:51:53.715Z,0.90
2022-11-17T07:54:20.465Z,0.80
2022-11-17T07:56:47.198Z,0.80
2022-11-17T07:59:18.527Z,1.00
2022-11-17T08:01:47.696Z,0.90
2022-11-17T08:04:14.305Z,1.10
2022-11-17T08:06:40.838Z,2.03
2022-11-17T08:09:10.675Z,0.80
2022-11-17T08:11:37.286Z,1.00
2022-11-17T08:14:03.870Z,1.03
2022-11-17T08:16:30.920Z,1.03
2022-11-17T08:18:57.744Z,1.30
2022-11-17T08:21:24.630Z,0.80
2022-11-17T08:23:52.725Z,0.60
2022-11-17T08:26:21.005Z,0.70
2022-11-17T08:28:48.757Z,0.90
2022-11-17T08:31:17.655Z,0.70
2022-11-17T08:33:44.222Z,1.20
2022-11-17T08:36:10.820Z,1.10
2022-11-17T08:38:37.698Z,0.60
2022-11-17T08:41:05.886Z,1.00
2022-11-17T08:43:32.901Z,0.50
2022-11-17T08:46:05.004Z,1.57
2022-11-17T08:48:32.221Z,0.60
2022-11-17T08:51:03.987Z,0.97
2022-11-17T08:53:30.589Z,0.90
2022-11-17T08:55:57.154Z,1.10
2022-11-17T08:58:23.897Z,1.40
2022-11-17T09:00:50.561Z,1.10
2022-11-17T09:03:17.348Z,0.60
2022-11-17T09:05:45.064Z,0.70
2022-11-17T09:08:44.061Z,0.80
2022-11-17T09:11:03.740Z,0.70
2022-11-17T09:13:31.282Z,0.60
2022-11-17T09:16:04.903Z,0.70
2022-11-17T09:18:31.477Z,0.60
2022-11-17T09:21:01.959Z,1.03
2022-11-17T09:23:29.273Z,0.60
2022-11-17T09:25:56.019Z,1.77
2022-11-17T09:28:24.301Z,0.70
2022-11-17T09:30:51.045Z,0.70
2022-11-17T09:33:17.856Z,0.70
2022-11-17T09:35:44.433Z,0.60
2022-11-17T09:38:11.057Z,0.80
2022-11-17T09:40:40.095Z,0.77
2022-11-17T09:43:14.033Z,0.60
2022-11-17T09:45:41.098Z,0.70
2022-11-17T09:48:40.361Z,0.80
2022-11-17T09:51:07.457Z,0.70
2022-11-17T09:53:45.950Z,0.53
2022-11-17T09:56:13.828Z,0.80
2022-11-17T09:58:49.877Z,0.60
2022-11-17T10:01:18.811Z,0.80
2022-11-17T10:03:48.027Z,1.70
2022-11-17T10:06:22.157Z,0.70
2022-11-17T10:08:55.546Z,0.83
2022-11-17T10:11:35.067Z,0.83
2022-11-17T10:14:07.877Z,0.80
2022-11-17T10:16:35.323Z,0.70
2022-11-17T10:19:22.084Z,0.57
2022-11-17T10:21:51.492Z,0.50
2022-11-17T10:24:36.644Z,0.77
2022-11-17T10:27:23.822Z,0.60
2022-11-17T10:29:59.523Z,0.60
2022-11-17T10:32:26.772Z,0.60
2022-11-17T10:34:54.382Z,0.70
2022-11-17T10:37:20.865Z,0.50
2022-11-17T10:39:47.419Z,0.70
2022-11-17T10:42:22.476Z,0.97
2022-11-17T10:44:52.241Z,0.70
2022-11-17T10:47:29.816Z,0.70
2022-11-17T10:50:05.750Z,0.83
2022-11-17T10:52:32.272Z,1.33
2022-11-17T10:55:19.042Z,0.60
2022-11-17T10:57:47.670Z,0.57
2022-11-17T11:00:22.396Z,0.90
2022-11-17T11:02:48.957Z,0.80
2022-11-17T11:05:21.407Z,0.73
2022-11-17T11:07:48.266Z,1.00
2022-11-17T11:10:18.937Z,0.60
2022-11-17T11:12:50.022Z,0.67
2022-11-17T11:15:18.940Z,1.10
2022-11-17T11:17:45.498Z,1.10
2022-11-17T11:20:16.660Z,0.70
2022-11-17T11:22:53.622Z,0.80
2022-11-17T11:25:39.189Z,0.90
2022-11-17T11:28:21.044Z,0.70
2022-11-17T11:30:55.958Z,0.80
2022-11-17T11:33:23.303Z,0.67
2022-11-17T11:35:49.771Z,0.90
2022-11-17T11:38:34.888Z,0.73
2022-11-17T11:41:20.350Z,0.50
2022-11-17T11:43:50.037Z,0.80
2022-11-17T11:46:19.837Z,0.83
2022-11-17T11:48:46.991Z,1.17
2022-11-17T11:51:27.363Z,1.03
2022-11-17T11:53:56.909Z,0.90
2022-11-17T11:56:30.377Z,0.90
2022-11-17T11:59:12.418Z,1.23
2022-11-17T12:01:43.653Z,0.60
2022-11-17T12:04:19.499Z,0.60
2022-11-17T12:07:04.991Z,0.97
2022-11-17T12:09:44.984Z,0.93
2022-11-17T12:12:23.297Z,1.53
2022-11-17T12:15:09.094Z,0.93
2022-11-17T12:17:36.564Z,0.60
2022-11-17T12:20:10.418Z,0.80
2022-11-17T12:22:37.478Z,0.87
2022-11-17T12:25:21.713Z,0.80
2022-11-17T12:27:49.847Z,0.70
2022-11-17T12:30:29.114Z,0.90
2022-11-17T12:32:55.683Z,0.70
2022-11-17T12:35:25.523Z,1.47
2022-11-17T12:38:11.154Z,0.70
2022-11-17T12:40:37.774Z,1.53
2022-11-17T12:43:19.461Z,0.63
2022-11-17T12:45:55.354Z,0.80
2022-11-17T12:48:36.101Z,1.40
2022-11-17T12:51:13.566Z,0.83
2022-11-17T12:53:55.521Z,0.80
2022-11-17T12:56:35.746Z,0.70
2022-11-17T12:59:14.821Z,0.77
2022-11-17T13:01:41.653Z,0.90
2022-11-17T13:04:14.601Z,1.03
2022-11-17T13:07:01.354Z,0.90
2022-11-17T13:09:29.485Z,0.97
2022-11-17T13:12:01.544Z,0.70
2022-11-17T13:14:28.152Z,1.60
2022-11-17T13:16:54.766Z,0.70
2022-11-17T13:19:30.710Z,0.70
2022-11-17T13:22:02.119Z,1.00
2022-11-17T13:24:33.466Z,0.90
2022-11-17T13:27:01.358Z,1.00
2022-11-17T13:29:28.266Z,0.90
2022-11-17T13:32:14.676Z,2.20
2022-11-17T13:34:48.834Z,0.93
2022-11-17T13:37:16.380Z,0.90
2022-11-17T13:39:53.701Z,1.40
2022-11-17T13:42:21.100Z,1.07
2022-11-17T13:44:48.366Z,0.87
2022-11-17T13:47:22.128Z,1.50
2022-11-17T13:49:48.690Z,0.93
2022-11-17T13:52:40.413Z,0.90
2022-11-17T13:55:10.401Z,1.20
2022-11-17T13:57:37.245Z,0.90
2022-11-17T14:00:04.692Z,1.20
2022-11-17T14:02:35.976Z,1.30
2022-11-17T14:05:07.338Z,1.50
2022-11-17T14:07:34.885Z,2.37
2022-11-17T14:10:34.363Z,1.20
2022-11-17T14:13:00.945Z,0.90
2022-11-17T14:15:29.015Z,1.10
2022-11-17T14:18:03.710Z,1.30
2022-11-17T14:20:31.905Z,1.30
2022-11-17T14:23:02.292Z,2.73
2022-11-17T14:25:29.285Z,0.80
2022-11-17T14:27:55.889Z,0.70
2022-11-17T14:30:22.507Z,1.13
2022-11-17T14:32:49.094Z,0.90
2022-11-17T14:35:15.722Z,1.50
2022-11-17T14:37:42.845Z,1.23
2022-11-17T14:40:13.656Z,0.97
2022-11-17T14:42:43.368Z,0.90
2022-11-17T14:45:14.377Z,1.30
2022-11-17T14:47:41.616Z,1.40
2022-11-17T14:50:14.044Z,1.67
2022-11-17T14:52:42.368Z,1.10
2022-11-17T14:55:11.046Z,1.10
2022-11-17T14:57:38.056Z,1.63
2022-11-17T15:00:06.075Z,1.70
2022-11-17T15:02:33.174Z,1.33
2022-11-17T15:05:00.360Z,1.70
2022-11-17T15:07:27.648Z,1.77
2022-11-17T15:09:54.386Z,1.50
2022-11-17T15:12:21.011Z,0.90
2022-11-17T15:14:47.860Z,1.50
2022-11-17T15:17:14.946Z,1.13
2022-11-17T15:19:41.645Z,1.20
2022-11-17T15:22:08.350Z,1.47
2022-11-17T15:24:34.928Z,1.00
2022-11-17T15:27:01.518Z,1.30
2022-11-17T15:29:28.097Z,0.70
2022-11-17T15:31:54.877Z,1.00
2022-11-17T15:34:21.441Z,1.90
2022-11-17T15:36:48.488Z,1.40
2022-11-17T15:39:15.425Z,1.30
2022-11-17T15:41:42.488Z,1.80
2022-11-17T15:44:09.172Z,1.70
2022-11-17T15:46:35.952Z,1.20
2022-11-17T15:49:02.556Z,1.40
2022-11-17T15:51:29.420Z,1.30
2022-11-17T15:53:57.730Z,1.20
2022-11-17T15:56:25.814Z,1.00
2022-11-17T15:59:01.853Z,0.90
2022-11-17T16:01:36.230Z,1.30
2022-11-17T16:04:04.651Z,1.93
2022-11-17T16:06:32.597Z,1.97
2022-11-17T16:08:59.639Z,1.37
2022-11-17T16:11:28.213Z,1.43
2022-11-17T16:14:01.982Z,1.93
2022-11-17T16:16:30.233Z,1.20
2022-11-17T16:18:57.072Z,5.43
2022-11-17T16:21:24.186Z,0.90
2022-11-17T16:23:53.215Z,1.73
2022-11-17T16:26:20.706Z,1.57
2022-11-17T16:28:48.041Z,1.77
2022-11-17T16:31:19.180Z,3.30
2022-11-17T16:33:53.486Z,1.10
2022-11-17T16:36:20.782Z,1.30
2022-11-17T16:39:00.806Z,1.37
2022-11-17T16:41:32.090Z,1.57
2022-11-17T16:43:59.196Z,1.13
2022-11-17T16:46:27.456Z,2.43
2022-11-17T16:48:54.416Z,1.40
2022-11-17T16:51:21.484Z,1.10
2022-11-17T16:53:49.034Z,1.20
2022-11-17T16:56:16.347Z,1.27
2022-11-17T16:58:42.923Z,1.47
2022-11-17T17:01:13.691Z,1.33
2022-11-17T17:03:40.920Z,1.43
2022-11-17T17:06:08.701Z,2.10
2022-11-17T17:08:35.570Z,1.10
2022-11-17T17:11:06.492Z,1.30
2022-11-17T17:13:33.720Z,1.33
2022-11-17T17:16:10.759Z,1.23
2022-11-17T17:18:38.741Z,1.93
2022-11-17T17:21:05.580Z,2.00
2022-11-17T17:23:32.193Z,1.50
2022-11-17T17:26:22.183Z,1.67
2022-11-17T17:28:49.772Z,1.43
2022-11-17T17:31:21.281Z,1.20
2022-11-17T17:33:50.004Z,1.70
2022-11-17T17:36:17.941Z,1.23
2022-11-17T17:38:48.836Z,1.23
2022-11-17T17:41:19.014Z,1.20
2022-11-17T17:43:46.402Z,1.50
2022-11-17T17:46:15.843Z,1.57
2022-11-17T17:48:44.473Z,1.80
2022-11-17T17:51:15.696Z,1.83
2022-11-17T17:53:42.359Z,1.90
2022-11-17T17:56:10.073Z,2.20
2022-11-17T17:58:41.375Z,3.40
2022-11-17T18:01:09.442Z,2.80
2022-11-17T18:03:36.549Z,3.90
2022-11-17T18:06:06.781Z,3.50
2022-11-17T18:08:35.707Z,3.60
2022-11-17T18:11:03.598Z,1.83
2022-11-17T18:13:37.397Z,2.93
2022-11-17T18:16:05.270Z,2.73
2022-11-17T18:18:32.904Z,2.20
2022-11-17T18:21:00.436Z,3.27
2022-11-17T18:23:27.772Z,3.30
2022-11-17T18:25:54.420Z,3.90
2022-11-17T18:28:21.330Z,3.30
2022-11-17T18:30:48.198Z,4.17
2022-11-17T18:33:16.267Z,3.20
2022-11-17T18:35:43.055Z,5.53
2022-11-17T18:38:09.932Z,5.43
2022-11-17T18:40:36.729Z,3.17
2022-11-17T18:43:03.716Z,3.30
2022-11-17T18:45:30.394Z,2.47
2022-11-17T18:47:57.159Z,3.43
2022-11-17T18:50:24.146Z,3.80
2022-11-17T18:52:50.879Z,3.77
2022-11-17T18:55:17.721Z,4.07
2022-11-17T18:57:45.200Z,6.97
2022-11-17T19:00:12.272Z,3.90
2022-11-17T19:02:39.247Z,3.10
2022-11-17T19:05:09.034Z,2.90
2022-11-17T19:07:36.241Z,5.97
2022-11-17T19:10:03.424Z,2.20
2022-11-17T19:12:30.194Z,3.00
2022-11-17T19:14:56.955Z,2.87
2022-11-17T19:17:23.597Z,2.60
2022-11-17T19:19:50.247Z,2.37
2022-11-17T19:22:16.920Z,2.20
2022-11-17T19:24:43.803Z,2.27
2022-11-17T19:27:10.378Z,4.73
2022-11-17T19:29:39.014Z,4.03
2022-11-17T19:32:05.663Z,5.13
2022-11-17T19:34:32.425Z,3.13
2022-11-17T19:36:59.117Z,5.93
2022-11-17T19:39:25.925Z,17.33
2022-11-17T19:41:53.345Z,14.13
2022-11-17T19:44:20.164Z,11.43
2022-11-17T19:46:47.025Z,10.83
2022-11-17T19:49:13.924Z,3.73
2022-11-17T19:51:42.091Z,2.07
2022-11-17T19:54:09.484Z,5.73
2022-11-17T19:56:36.469Z,5.73
2022-11-17T19:59:03.532Z,4.53
2022-11-17T20:01:30.832Z,3.30
2022-11-17T20:03:58.948Z,2.93
2022-11-17T20:06:27.594Z,3.70
2022-11-17T20:08:54.977Z,3.70
2022-11-17T20:11:23.068Z,3.30
2022-11-17T20:13:49.942Z,2.03
2022-11-17T20:16:18.295Z,2.10
2022-11-17T20:18:45.382Z,3.80
2022-11-17T20:21:14.453Z,3.17
2022-11-17T20:23:41.433Z,2.90
2022-11-17T20:26:08.982Z,2.07
2022-11-17T20:28:36.241Z,2.70
2022-11-17T20:31:13.332Z,2.37
2022-11-17T20:33:40.862Z,3.13
2022-11-17T20:36:08.490Z,3.57
2022-11-17T20:38:35.966Z,3.03
2022-11-17T20:41:03.357Z,3.67
2022-11-17T20:43:29.952Z,5.27
2022-11-17T20:45:57.092Z,4.50
2022-11-17T20:48:24.271Z,2.90
2022-11-17T20:51:00.974Z,3.20
2022-11-17T20:53:27.902Z,1.53
2022-11-17T20:55:55.048Z,2.13
2022-11-17T20:58:22.021Z,2.53
2022-11-17T21:00:48.744Z,4.20
2022-11-17T21:03:15.983Z,3.60
2022-11-17T21:05:42.620Z,2.90
2022-11-17T21:08:09.220Z,4.00
2022-11-17T21:10:38.495Z,3.20
2022-11-17T21:13:05.420Z,2.70
2022-11-17T21:15:32.307Z,5.23
2022-11-17T21:18:17.720Z,2.10
2022-11-17T21:20:44.474Z,4.13
2022-11-17T21:23:11.062Z,2.47
2022-11-17T21:25:37.705Z,2.30
2022-11-17T21:28:04.449Z,2.20
2022-11-17T21:30:32.399Z,2.23
2022-11-17T21:32:59.404Z,3.40
2022-11-17T21:35:26.407Z,2.63
2022-11-17T21:37:53.070Z,2.47
2022-11-17T21:40:19.593Z,1.80
2022-11-17T21:42:46.285Z,2.00
2022-11-17T21:45:13.126Z,2.30
2022-11-17T21:47:39.749Z,2.57
2022-11-17T21:50:06.612Z,2.53
2022-11-17T21:52:33.487Z,3.00
2022-11-17T21:54:59.945Z,1.93
2022-11-17T21:57:26.533Z,2.60
2022-11-17T21:59:53.105Z,2.30
2022-11-17T22:02:19.740Z,2.53
2022-11-17T22:04:46.539Z,3.33
2022-11-17T22:07:13.327Z,3.97
2022-11-17T22:09:40.081Z,2.43
2022-11-17T22:12:06.739Z,3.40
2022-11-17T22:14:33.308Z,3.83
2022-11-17T22:17:00.599Z,3.20
2022-11-17T22:19:27.883Z,3.27
2022-11-17T22:21:54.571Z,3.80
2022-11-17T22:24:21.419Z,3.33
2022-11-17T22:26:48.067Z,4.17
2022-11-17T22:29:16.577Z,3.83
2022-11-17T22:31:44.346Z,3.27
2022-11-17T22:34:11.266Z,4.50
2022-11-17T22:36:37.925Z,4.47
2022-11-17T22:39:04.761Z,2.70
2022-11-17T22:41:31.345Z,3.00
2022-11-17T22:43:58.247Z,3.73
2022-11-17T22:46:26.078Z,4.30
2022-11-17T22:48:52.616Z,2.87
2022-11-17T22:51:38.115Z,3.50
2022-11-17T22:54:05.255Z,2.80
2022-11-17T22:56:32.440Z,3.17
2022-11-17T22:58:59.955Z,3.00
2022-11-17T23:01:26.833Z,3.00
2022-11-17T23:03:53.463Z,2.70
2022-11-17T23:06:20.461Z,3.20
2022-11-17T23:08:46.984Z,3.60
2022-11-17T23:14:00.771Z,4.00
2022-11-17T23:16:27.355Z,2.80
2022-11-17T23:18:55.105Z,4.10
2022-11-17T23:21:23.300Z,5.53
2022-11-17T23:23:50.330Z,3.87
2022-11-17T23:26:17.006Z,3.00
2022-11-17T23:28:43.733Z,3.07
2022-11-17T23:31:11.443Z,3.90
2022-11-17T23:33:39.521Z,3.43
2022-11-17T23:36:07.585Z,3.10
2022-11-17T23:38:34.273Z,2.70
2022-11-17T23:41:01.170Z,2.60
2022-11-17T23:43:30.889Z,3.30
2022-11-17T23:46:02.772Z,3.03
2022-11-17T23:48:29.361Z,3.07
2022-11-17T23:50:55.922Z,2.57
2022-11-17T23:53:22.670Z,3.17
2022-11-17T23:55:56.080Z,3.20
2022-11-17T23:58:22.737Z,3.40
